Wartburg, Illinois
Current Conditions -  °F | °C
As of 1:53 PM on Sunday 23 Nov 2014 (Local Time) from KCPS Reporting Station
Moderate Rain Moderate Rain  
Wind Chill: 55°   Ceiling: 800
Heat Index: 55°   Visibility: 2mi
Dew Point: 53°   Wind: 8mph
Humidity: 93%   Direction: 140°SE
Pressure: 29.42"   Gusts: NA
Location:  38.3034°N, 90.1358°W
Report Text: KCPS 231953Z 14007KT 2SM RA BR BKN008 BKN035 OVC050 13/12 A2942 RMK AO2 SLP963 P0028 T01280117
Loading
Personal Weather Stations






























Interactive Weather Map New forecast layout! Learn more

10-Day Weather Forecast

Advertisements
Track Severe Weather on mobile